createdAt,value
2022-10-07T00:03:33.470Z,8.9
2022-10-07T00:08:39.817Z,8.8
2022-10-07T00:13:46.211Z,8.8
2022-10-07T00:18:52.602Z,8.7
2022-10-07T00:24:43.008Z,8.6
2022-10-07T00:29:05.369Z,8.6
2022-10-07T00:34:35.807Z,8.6
2022-10-07T00:39:17.121Z,8.5
2022-10-07T00:44:24.472Z,8.5
2022-10-07T00:49:55.002Z,8.4
2022-10-07T00:54:37.441Z,8.4
2022-10-07T01:00:07.957Z,8.3
2022-10-07T01:04:50.471Z,8.3
2022-10-07T01:10:00.884Z,8.3
2022-10-07T01:15:03.223Z,8.3
2022-10-07T01:20:09.601Z,8.2
2022-10-07T01:25:16.038Z,8.2
2022-10-07T01:30:22.415Z,8.2
2022-10-07T01:35:28.787Z,8.1
2022-10-07T01:40:55.198Z,8.1
2022-10-07T01:46:05.631Z,8.1
2022-10-07T01:55:54.445Z,8.0
2022-10-07T02:01:00.838Z,8.0
2022-10-07T02:06:07.204Z,8.0
2022-10-07T02:11:13.704Z,8.0
2022-10-07T02:16:20.288Z,8.0
2022-10-07T02:21:26.558Z,7.9
2022-10-07T02:26:32.950Z,8.0
2022-10-07T02:31:39.363Z,8.0
2022-10-07T02:37:09.766Z,8.0
2022-10-07T02:41:52.099Z,8.0
2022-10-07T02:47:43.058Z,8.0
2022-10-07T02:52:05.087Z,8.1
2022-10-07T02:57:11.458Z,8.1
2022-10-07T03:02:41.907Z,8.1
2022-10-07T03:07:24.249Z,8.2
2022-10-07T03:12:30.630Z,8.2
2022-10-07T03:17:37.095Z,8.2
2022-10-07T03:22:43.597Z,8.2
2022-10-07T03:27:49.944Z,8.2
2022-10-07T03:32:56.317Z,8.3
2022-10-07T03:38:02.729Z,8.3
2022-10-07T03:43:08.090Z,8.3
2022-10-07T03:48:19.516Z,8.3
2022-10-07T03:53:41.984Z,8.3
2022-10-07T03:58:28.302Z,8.3
2022-10-07T04:03:34.794Z,8.3
2022-10-07T04:08:41.165Z,8.3
2022-10-07T04:13:47.572Z,8.3
2022-10-07T04:18:53.924Z,8.3
2022-10-07T04:24:00.322Z,8.3
2022-10-07T04:29:06.731Z,8.3
2022-10-07T04:34:13.093Z,8.3
2022-10-07T04:39:19.480Z,8.3
2022-10-07T04:44:45.932Z,8.3
2022-10-07T04:49:32.253Z,8.3
2022-10-07T04:54:58.652Z,8.3
2022-10-07T05:00:09.050Z,8.3
2022-10-07T05:04:51.389Z,8.2
2022-10-07T05:09:57.876Z,8.2
2022-10-07T05:15:04.343Z,8.2
2022-10-07T05:20:10.751Z,8.2
2022-10-07T05:25:17.116Z,8.1
2022-10-07T05:30:43.528Z,8.1
2022-10-07T05:35:29.887Z,8.0
2022-10-07T05:40:36.261Z,8.0
2022-10-07T05:46:02.906Z,8.0
2022-10-07T05:50:49.247Z,8.0
2022-10-07T05:55:55.640Z,8.0
2022-10-07T06:01:06.056Z,8.0
2022-10-07T06:06:08.417Z,8.0
2022-10-07T06:11:04.771Z,8.0
2022-10-07T06:16:21.236Z,8.0
2022-10-07T06:21:27.580Z,8.0
2022-10-07T06:26:53.970Z,8.0
2022-10-07T06:31:40.431Z,8.0
2022-10-07T06:36:46.957Z,8.0
2022-10-07T06:41:53.316Z,8.0
2022-10-07T06:47:23.748Z,8.1
2022-10-07T06:52:06.108Z,8.1
2022-10-07T06:57:46.803Z,8.2
2022-10-07T07:02:53.938Z,8.2
2022-10-07T07:08:00.472Z,8.3
2022-10-07T07:13:06.834Z,8.4
2022-10-07T07:18:57.293Z,8.5
2022-10-07T07:23:19.622Z,8.6
2022-10-07T07:28:26.015Z,8.7
2022-10-07T07:34:07.462Z,9.1
2022-10-07T07:39:04.872Z,9.1
2022-10-07T07:44:21.372Z,9.5
2022-10-07T07:49:27.772Z,10.2
2022-10-07T07:54:34.318Z,11.2
2022-10-07T07:59:40.643Z,12.2
2022-10-07T08:04:37.127Z,13.3
2022-10-07T08:09:43.544Z,14.4
2022-10-07T08:16:00.123Z,15.4
2022-10-07T08:20:06.335Z,16.4
2022-10-07T08:25:12.804Z,17.1
2022-10-07T08:35:25.522Z,18.8
2022-10-07T08:40:35.934Z,19.6
2022-10-07T08:45:39.513Z,20.2
2022-10-07T08:50:49.891Z,20.8
2022-10-07T08:55:42.277Z,21.4
2022-10-07T09:07:07.149Z,22.6
2022-10-07T09:11:11.510Z,23.2
2022-10-07T09:21:48.419Z,24.2
2022-10-07T09:26:44.856Z,24.5
2022-10-07T09:31:37.312Z,24.8
2022-10-07T09:41:50.306Z,25.4
2022-10-07T09:46:56.652Z,25.5
2022-10-07T09:51:53.128Z,26.0
2022-10-07T09:57:34.720Z,26.4
2022-10-07T10:02:41.360Z,26.7
2022-10-07T10:08:50.692Z,27.3
2022-10-07T10:18:20.412Z,27.5
2022-10-07T10:23:50.825Z,27.7
2022-10-07T10:28:33.225Z,27.9
2022-10-07T10:38:45.893Z,28.1
2022-10-07T10:43:52.289Z,28.2
2022-10-07T10:48:58.830Z,28.2
2022-10-07T10:53:55.170Z,28.2
2022-10-07T10:59:11.588Z,28.2
2022-10-07T11:04:18.017Z,28.1
2022-10-07T11:09:27.445Z,28.1
2022-10-07T11:14:30.744Z,28.1
2022-10-07T11:19:37.269Z,28.1
2022-10-07T11:24:43.713Z,28.2
2022-10-07T11:29:50.198Z,28.2
2022-10-07T11:34:49.852Z,28.3
2022-10-07T11:40:02.004Z,28.5
2022-10-07T11:45:09.425Z,28.4
2022-10-07T11:51:31.936Z,28.4
2022-10-07T11:55:42.282Z,28.4
2022-10-07T12:03:16.959Z,28.4
2022-10-07T12:05:24.976Z,28.5
2022-10-07T12:10:41.438Z,28.7
2022-10-07T12:15:55.484Z,28.7
2022-10-07T12:20:57.840Z,28.8
2022-10-07T12:26:06.019Z,28.8
2022-10-07T12:31:12.232Z,28.7
2022-10-07T12:36:18.572Z,28.4
2022-10-07T12:41:25.138Z,28.2
2022-10-07T12:46:32.909Z,27.9
2022-10-07T12:51:39.373Z,27.7
2022-10-07T12:56:49.773Z,27.5
2022-10-07T13:01:52.260Z,27.3
2022-10-07T13:07:00.103Z,27.1
2022-10-07T13:12:06.558Z,26.9
2022-10-07T13:29:00.918Z,26.4
2022-10-07T13:33:27.212Z,26.2
2022-10-07T13:38:33.768Z,26.0
2022-10-07T13:43:20.219Z,25.9
2022-10-07T13:49:26.748Z,25.7
2022-10-07T13:53:32.981Z,25.6
2022-10-07T13:58:39.368Z,25.5
2022-10-07T14:03:45.775Z,25.5
2022-10-07T14:08:42.259Z,25.4
2022-10-07T14:14:58.855Z,25.3
2022-10-07T14:19:05.120Z,25.2
2022-10-07T14:24:01.504Z,25.1
2022-10-07T14:29:17.921Z,25.0
2022-10-07T14:34:24.299Z,24.9
2022-10-07T14:39:30.698Z,24.7
2022-10-07T14:44:37.061Z,24.5
2022-10-07T14:49:43.549Z,24.2
2022-10-07T14:54:49.939Z,24.1
2022-10-07T14:59:56.306Z,23.8
2022-10-07T15:05:26.815Z,23.5
2022-10-07T15:09:59.067Z,23.2
2022-10-07T15:15:05.426Z,22.9
2022-10-07T15:20:25.827Z,22.6
2022-10-07T15:30:58.858Z,22.0
2022-10-07T15:35:41.136Z,21.7
2022-10-07T15:40:47.588Z,21.5
2022-10-07T15:45:58.018Z,21.2
2022-10-07T15:51:00.333Z,21.0
2022-10-07T16:01:13.171Z,20.6
2022-10-07T16:12:01.066Z,20.1
2022-10-07T16:32:26.643Z,19.4
2022-10-07T16:37:33.028Z,19.2
2022-10-07T16:53:27.353Z,18.6
2022-10-07T16:58:33.752Z,18.5
2022-10-07T17:03:40.369Z,18.3
2022-10-07T17:13:53.232Z,17.9
2022-10-07T17:18:49.739Z,17.8
2022-10-07T17:24:10.155Z,17.6
2022-10-07T17:29:16.584Z,17.4
2022-10-07T17:34:18.953Z,17.3
2022-10-07T17:39:15.234Z,17.1
2022-10-07T17:44:50.692Z,16.9
2022-10-07T17:49:38.247Z,16.8
2022-10-07T17:54:44.518Z,16.6
2022-10-07T17:59:50.899Z,16.5
2022-10-07T18:10:03.794Z,16.2
2022-10-07T18:15:10.171Z,16.0
2022-10-07T18:20:16.584Z,15.8
2022-10-07T18:25:22.938Z,15.7
2022-10-07T18:30:29.341Z,15.6
2022-10-07T18:35:35.739Z,15.5
2022-10-07T18:40:42.219Z,15.3
2022-10-07T18:45:48.768Z,15.2
2022-10-07T18:50:45.086Z,15.1
2022-10-07T18:56:01.466Z,15.0
2022-10-07T19:01:08.120Z,14.9
2022-10-07T19:06:14.467Z,14.8
2022-10-07T19:11:10.807Z,14.8
2022-10-07T19:16:26.248Z,14.7
2022-10-07T19:21:23.588Z,14.6
2022-10-07T19:26:39.971Z,14.5
2022-10-07T19:31:46.504Z,14.5
2022-10-07T19:36:52.877Z,14.4
2022-10-07T19:42:23.289Z,14.3
2022-10-07T19:47:05.623Z,14.2
2022-10-07T19:52:36.073Z,14.1
2022-10-07T19:57:18.389Z,14.0
2022-10-07T20:02:14.856Z,14.0
2022-10-07T20:07:31.363Z,13.9
2022-10-07T20:12:39.011Z,13.8
2022-10-07T20:17:45.739Z,13.7
2022-10-07T20:22:44.707Z,13.7
2022-10-07T20:27:48.827Z,13.6
2022-10-07T20:33:04.503Z,13.5
2022-10-07T20:38:10.888Z,13.5
2022-10-07T20:43:17.301Z,13.4
2022-10-07T20:48:43.501Z,13.4
2022-10-07T20:53:31.197Z,13.3
2022-10-07T20:59:01.641Z,13.3
2022-10-07T21:03:33.946Z,13.2
2022-10-07T21:08:39.315Z,13.2
2022-10-07T21:14:20.826Z,13.2
2022-10-07T21:19:03.127Z,13.2
2022-10-07T21:24:09.513Z,13.1
2022-10-07T21:29:05.875Z,13.1
2022-10-07T21:34:46.342Z,13.1
2022-10-07T21:39:28.653Z,13.1
2022-10-07T21:44:35.046Z,13.1
2022-10-07T21:49:45.452Z,13.0
2022-10-07T21:54:47.826Z,13.0
2022-10-07T21:59:54.178Z,13.0
2022-10-07T22:05:20.616Z,12.9
2022-10-07T22:12:55.421Z,12.9
2022-10-07T22:15:13.561Z,12.9
2022-10-07T22:20:20.042Z,12.9
2022-10-07T22:25:26.431Z,12.9
2022-10-07T22:30:22.818Z,12.8
2022-10-07T22:35:39.196Z,12.8
2022-10-07T22:40:45.615Z,12.8
2022-10-07T22:45:56.026Z,12.8
2022-10-07T22:51:18.595Z,12.7
2022-10-07T22:55:55.029Z,12.7
2022-10-07T23:01:11.449Z,12.7
2022-10-07T23:06:41.859Z,12.7
2022-10-07T23:11:24.197Z,12.6
2022-10-07T23:16:30.609Z,12.6
2022-10-07T23:22:01.021Z,12.6
2022-10-07T23:26:33.481Z,12.6
2022-10-07T23:31:39.957Z,12.6
2022-10-07T23:37:00.226Z,12.6
2022-10-07T23:42:02.624Z,12.5
2022-10-07T23:47:09.052Z,12.5
2022-10-07T23:52:15.487Z,12.5
2022-10-07T23:57:21.990Z,12.5
